sensor_id;sensor_type;location;lat;lon;timestamp;temperature;humidity
6986;DHT22;3533;51.246;6.850;2023-01-19T00:01:18;19.50;38.80
6986;DHT22;3533;51.246;6.850;2023-01-19T00:03:44;19.50;38.80
6986;DHT22;3533;51.246;6.850;2023-01-19T00:06:09;19.50;38.80
6986;DHT22;3533;51.246;6.850;2023-01-19T00:08:35;19.50;38.80
6986;DHT22;3533;51.246;6.850;2023-01-19T00:11:01;19.50;38.80
6986;DHT22;3533;51.246;6.850;2023-01-19T00:13:27;19.50;38.80
6986;DHT22;3533;51.246;6.850;2023-01-19T00:15:53;19.50;38.80
6986;DHT22;3533;51.246;6.850;2023-01-19T00:18:18;19.50;38.80
6986;DHT22;3533;51.246;6.850;2023-01-19T00:20:45;19.50;38.80
6986;DHT22;3533;51.246;6.850;2023-01-19T00:23:11;19.50;38.80
6986;DHT22;3533;51.246;6.850;2023-01-19T00:25:37;19.50;38.80
6986;DHT22;3533;51.246;6.850;2023-01-19T00:28:07;19.50;38.80
6986;DHT22;3533;51.246;6.850;2023-01-19T00:30:32;19.50;38.80
6986;DHT22;3533;51.246;6.850;2023-01-19T00:32:58;19.50;38.80
6986;DHT22;3533;51.246;6.850;2023-01-19T00:35:24;19.50;38.80
6986;DHT22;3533;51.246;6.850;2023-01-19T00:37:49;19.50;38.80
6986;DHT22;3533;51.246;6.850;2023-01-19T00:40:16;19.50;38.80
6986;DHT22;3533;51.246;6.850;2023-01-19T00:42:41;19.50;38.80
6986;DHT22;3533;51.246;6.850;2023-01-19T00:45:16;19.50;38.80
6986;DHT22;3533;51.246;6.850;2023-01-19T00:47:43;19.50;38.80
6986;DHT22;3533;51.246;6.850;2023-01-19T00:50:10;19.50;38.80
6986;DHT22;3533;51.246;6.850;2023-01-19T00:52:37;19.50;39.50
6986;DHT22;3533;51.246;6.850;2023-01-19T00:55:03;19.50;38.80
6986;DHT22;3533;51.246;6.850;2023-01-19T00:57:29;19.50;38.80
6986;DHT22;3533;51.246;6.850;2023-01-19T00:59:55;19.50;38.80
6986;DHT22;3533;51.246;6.850;2023-01-19T01:02:20;19.50;38.80
6986;DHT22;3533;51.246;6.850;2023-01-19T01:04:46;19.50;38.80
6986;DHT22;3533;51.246;6.850;2023-01-19T01:07:11;19.50;38.80
6986;DHT22;3533;51.246;6.850;2023-01-19T01:09:37;19.50;38.80
6986;DHT22;3533;51.246;6.850;2023-01-19T01:12:03;19.50;38.80
6986;DHT22;3533;51.246;6.850;2023-01-19T01:14:28;19.50;38.80
6986;DHT22;3533;51.246;6.850;2023-01-19T01:16:54;19.40;38.70
6986;DHT22;3533;51.246;6.850;2023-01-19T01:19:20;19.50;38.80
6986;DHT22;3533;51.246;6.850;2023-01-19T01:21:46;19.50;38.80
6986;DHT22;3533;51.246;6.850;2023-01-19T01:24:11;19.50;38.80
6986;DHT22;3533;51.246;6.850;2023-01-19T01:26:37;19.50;38.80
6986;DHT22;3533;51.246;6.850;2023-01-19T01:29:04;19.50;38.80
6986;DHT22;3533;51.246;6.850;2023-01-19T01:31:30;19.50;38.80
6986;DHT22;3533;51.246;6.850;2023-01-19T01:33:56;19.50;38.80
6986;DHT22;3533;51.246;6.850;2023-01-19T01:36:21;19.50;38.80
6986;DHT22;3533;51.246;6.850;2023-01-19T01:38:47;19.50;38.80
6986;DHT22;3533;51.246;6.850;2023-01-19T01:41:13;19.40;38.70
6986;DHT22;3533;51.246;6.850;2023-01-19T01:43:47;19.50;38.80
6986;DHT22;3533;51.246;6.850;2023-01-19T01:46:14;19.40;38.70
6986;DHT22;3533;51.246;6.850;2023-01-19T01:48:47;19.40;38.70
6986;DHT22;3533;51.246;6.850;2023-01-19T01:51:59;19.50;38.80
6986;DHT22;3533;51.246;6.850;2023-01-19T01:56:50;19.50;38.80
6986;DHT22;3533;51.246;6.850;2023-01-19T01:59:24;19.40;38.70
6986;DHT22;3533;51.246;6.850;2023-01-19T02:01:55;19.40;38.70
6986;DHT22;3533;51.246;6.850;2023-01-19T02:04:43;19.40;38.70
6986;DHT22;3533;51.246;6.850;2023-01-19T02:07:14;19.40;38.70
6986;DHT22;3533;51.246;6.850;2023-01-19T02:10:00;19.40;38.70
6986;DHT22;3533;51.246;6.850;2023-01-19T02:12:45;19.40;38.70
6986;DHT22;3533;51.246;6.850;2023-01-19T02:15:29;19.40;38.70
6986;DHT22;3533;51.246;6.850;2023-01-19T02:17:55;19.40;38.70
6986;DHT22;3533;51.246;6.850;2023-01-19T02:20:25;19.40;38.70
6986;DHT22;3533;51.246;6.850;2023-01-19T02:22:54;19.40;38.70
6986;DHT22;3533;51.246;6.850;2023-01-19T02:25:20;19.40;39.20
6986;DHT22;3533;51.246;6.850;2023-01-19T02:27:46;19.40;38.70
6986;DHT22;3533;51.246;6.850;2023-01-19T02:30:12;19.40;38.70
6986;DHT22;3533;51.246;6.850;2023-01-19T02:32:38;19.40;38.70
6986;DHT22;3533;51.246;6.850;2023-01-19T02:35:05;19.40;38.70
6986;DHT22;3533;51.246;6.850;2023-01-19T02:37:31;19.40;38.70
6986;DHT22;3533;51.246;6.850;2023-01-19T02:40:02;19.40;38.70
6986;DHT22;3533;51.246;6.850;2023-01-19T02:42:35;19.40;38.70
6986;DHT22;3533;51.246;6.850;2023-01-19T02:45:04;19.40;38.70
6986;DHT22;3533;51.246;6.850;2023-01-19T02:47:45;19.40;38.70
6986;DHT22;3533;51.246;6.850;2023-01-19T02:56:05;19.40;38.70
6986;DHT22;3533;51.246;6.850;2023-01-19T02:58:44;19.40;38.70
6986;DHT22;3533;51.246;6.850;2023-01-19T03:03:56;19.40;38.70
6986;DHT22;3533;51.246;6.850;2023-01-19T03:06:41;19.40;38.70
6986;DHT22;3533;51.246;6.850;2023-01-19T03:09:30;19.40;38.70
6986;DHT22;3533;51.246;6.850;2023-01-19T03:12:07;19.40;38.70
6986;DHT22;3533;51.246;6.850;2023-01-19T03:14:37;19.40;38.70
6986;DHT22;3533;51.246;6.850;2023-01-19T03:17:07;19.40;38.70
6986;DHT22;3533;51.246;6.850;2023-01-19T03:19:40;19.40;38.70
6986;DHT22;3533;51.246;6.850;2023-01-19T03:22:11;19.40;38.70
6986;DHT22;3533;51.246;6.850;2023-01-19T03:24:40;19.40;38.70
6986;DHT22;3533;51.246;6.850;2023-01-19T03:27:21;19.40;38.70
6986;DHT22;3533;51.246;6.850;2023-01-19T03:29:51;19.40;38.70
6986;DHT22;3533;51.246;6.850;2023-01-19T03:32:19;19.40;38.70
6986;DHT22;3533;51.246;6.850;2023-01-19T03:34:48;19.40;38.70
6986;DHT22;3533;51.246;6.850;2023-01-19T03:37:15;19.40;38.70
6986;DHT22;3533;51.246;6.850;2023-01-19T03:39:43;19.40;38.70
6986;DHT22;3533;51.246;6.850;2023-01-19T03:42:13;19.40;38.70
6986;DHT22;3533;51.246;6.850;2023-01-19T03:44:40;19.40;38.70
6986;DHT22;3533;51.246;6.850;2023-01-19T03:47:08;19.40;38.70
6986;DHT22;3533;51.246;6.850;2023-01-19T03:49:35;19.40;38.70
6986;DHT22;3533;51.246;6.850;2023-01-19T03:52:02;19.40;38.70
6986;DHT22;3533;51.246;6.850;2023-01-19T03:54:27;19.40;38.70
6986;DHT22;3533;51.246;6.850;2023-01-19T03:56:53;19.40;38.70
6986;DHT22;3533;51.246;6.850;2023-01-19T03:59:19;19.40;38.70
6986;DHT22;3533;51.246;6.850;2023-01-19T04:01:46;19.40;38.70
6986;DHT22;3533;51.246;6.850;2023-01-19T04:04:12;19.40;38.70
6986;DHT22;3533;51.246;6.850;2023-01-19T04:06:38;19.40;38.70
6986;DHT22;3533;51.246;6.850;2023-01-19T04:09:04;19.40;38.70
6986;DHT22;3533;51.246;6.850;2023-01-19T04:11:29;19.40;38.70
6986;DHT22;3533;51.246;6.850;2023-01-19T04:13:55;19.40;38.70
6986;DHT22;3533;51.246;6.850;2023-01-19T04:16:21;19.40;38.70
6986;DHT22;3533;51.246;6.850;2023-01-19T04:18:48;19.40;38.70
6986;DHT22;3533;51.246;6.850;2023-01-19T04:21:15;19.40;38.70
6986;DHT22;3533;51.246;6.850;2023-01-19T04:23:40;19.40;38.70
6986;DHT22;3533;51.246;6.850;2023-01-19T04:26:07;19.40;38.70
6986;DHT22;3533;51.246;6.850;2023-01-19T04:28:34;19.40;38.70
6986;DHT22;3533;51.246;6.850;2023-01-19T04:31:01;19.40;38.70
6986;DHT22;3533;51.246;6.850;2023-01-19T04:33:27;19.40;38.70
6986;DHT22;3533;51.246;6.850;2023-01-19T04:35:53;19.40;38.70
6986;DHT22;3533;51.246;6.850;2023-01-19T04:38:21;19.40;38.70
6986;DHT22;3533;51.246;6.850;2023-01-19T04:40:48;19.40;38.70
6986;DHT22;3533;51.246;6.850;2023-01-19T04:43:14;19.40;38.60
6986;DHT22;3533;51.246;6.850;2023-01-19T04:45:40;19.40;38.60
6986;DHT22;3533;51.246;6.850;2023-01-19T04:48:05;19.40;38.60
6986;DHT22;3533;51.246;6.850;2023-01-19T04:50:31;19.40;38.60
6986;DHT22;3533;51.246;6.850;2023-01-19T04:52:57;19.40;38.60
6986;DHT22;3533;51.246;6.850;2023-01-19T04:55:23;19.40;38.60
6986;DHT22;3533;51.246;6.850;2023-01-19T04:57:49;19.40;38.50
6986;DHT22;3533;51.246;6.850;2023-01-19T05:00:15;19.40;38.50
6986;DHT22;3533;51.246;6.850;2023-01-19T05:02:41;19.50;38.60
6986;DHT22;3533;51.246;6.850;2023-01-19T05:05:08;19.50;38.50
6986;DHT22;3533;51.246;6.850;2023-01-19T05:07:34;19.50;38.60
6986;DHT22;3533;51.246;6.850;2023-01-19T05:09:59;19.50;38.50
6986;DHT22;3533;51.246;6.850;2023-01-19T05:12:25;19.50;38.50
6986;DHT22;3533;51.246;6.850;2023-01-19T05:14:50;19.50;38.30
6986;DHT22;3533;51.246;6.850;2023-01-19T05:17:16;19.50;38.30
6986;DHT22;3533;51.246;6.850;2023-01-19T05:19:42;19.60;38.40
6986;DHT22;3533;51.246;6.850;2023-01-19T05:22:07;19.60;38.30
6986;DHT22;3533;51.246;6.850;2023-01-19T05:24:33;19.60;38.30
6986;DHT22;3533;51.246;6.850;2023-01-19T05:26:58;19.60;38.20
6986;DHT22;3533;51.246;6.850;2023-01-19T05:29:24;19.60;38.30
6986;DHT22;3533;51.246;6.850;2023-01-19T05:31:50;19.60;38.30
6986;DHT22;3533;51.246;6.850;2023-01-19T05:34:16;19.60;38.30
6986;DHT22;3533;51.246;6.850;2023-01-19T05:36:41;19.60;38.30
6986;DHT22;3533;51.246;6.850;2023-01-19T05:39:07;19.60;38.30
6986;DHT22;3533;51.246;6.850;2023-01-19T05:41:33;19.60;38.30
6986;DHT22;3533;51.246;6.850;2023-01-19T05:43:59;19.60;38.30
6986;DHT22;3533;51.246;6.850;2023-01-19T05:46:25;19.60;38.30
6986;DHT22;3533;51.246;6.850;2023-01-19T05:48:51;19.60;38.30
6986;DHT22;3533;51.246;6.850;2023-01-19T05:51:16;19.60;38.30
6986;DHT22;3533;51.246;6.850;2023-01-19T05:53:42;19.60;38.20
6986;DHT22;3533;51.246;6.850;2023-01-19T05:56:08;19.60;38.30
6986;DHT22;3533;51.246;6.850;2023-01-19T05:58:35;19.60;38.20
6986;DHT22;3533;51.246;6.850;2023-01-19T06:01:05;19.60;38.30
6986;DHT22;3533;51.246;6.850;2023-01-19T06:03:32;19.50;38.10
6986;DHT22;3533;51.246;6.850;2023-01-19T06:05:58;19.60;38.20
6986;DHT22;3533;51.246;6.850;2023-01-19T06:08:23;19.50;38.20
6986;DHT22;3533;51.246;6.850;2023-01-19T06:10:49;19.60;38.20
6986;DHT22;3533;51.246;6.850;2023-01-19T06:13:15;19.60;38.20
6986;DHT22;3533;51.246;6.850;2023-01-19T06:15:41;19.60;38.20
6986;DHT22;3533;51.246;6.850;2023-01-19T06:18:08;19.60;38.20
6986;DHT22;3533;51.246;6.850;2023-01-19T06:20:34;19.50;38.10
6986;DHT22;3533;51.246;6.850;2023-01-19T06:23:00;19.60;38.20
6986;DHT22;3533;51.246;6.850;2023-01-19T06:25:26;19.60;38.20
6986;DHT22;3533;51.246;6.850;2023-01-19T06:27:51;19.60;38.20
6986;DHT22;3533;51.246;6.850;2023-01-19T06:30:17;19.50;38.10
6986;DHT22;3533;51.246;6.850;2023-01-19T06:32:43;19.50;38.10
6986;DHT22;3533;51.246;6.850;2023-01-19T06:35:08;19.50;38.10
6986;DHT22;3533;51.246;6.850;2023-01-19T06:37:34;19.50;38.10
6986;DHT22;3533;51.246;6.850;2023-01-19T06:40:00;19.50;38.20
6986;DHT22;3533;51.246;6.850;2023-01-19T06:42:25;19.50;38.10
6986;DHT22;3533;51.246;6.850;2023-01-19T06:44:51;19.50;38.10
6986;DHT22;3533;51.246;6.850;2023-01-19T06:47:16;19.50;38.20
6986;DHT22;3533;51.246;6.850;2023-01-19T06:49:42;19.50;38.20
6986;DHT22;3533;51.246;6.850;2023-01-19T06:52:11;19.50;38.20
6986;DHT22;3533;51.246;6.850;2023-01-19T06:54:40;19.50;38.20
6986;DHT22;3533;51.246;6.850;2023-01-19T06:57:07;19.50;38.20
6986;DHT22;3533;51.246;6.850;2023-01-19T06:59:33;19.50;38.20
6986;DHT22;3533;51.246;6.850;2023-01-19T07:01:58;19.50;38.20
6986;DHT22;3533;51.246;6.850;2023-01-19T07:04:24;19.50;38.20
6986;DHT22;3533;51.246;6.850;2023-01-19T07:06:51;19.50;38.20
6986;DHT22;3533;51.246;6.850;2023-01-19T07:09:16;19.50;38.20
6986;DHT22;3533;51.246;6.850;2023-01-19T07:11:42;19.50;38.10
6986;DHT22;3533;51.246;6.850;2023-01-19T07:14:07;19.50;38.20
6986;DHT22;3533;51.246;6.850;2023-01-19T07:16:33;19.50;38.20
6986;DHT22;3533;51.246;6.850;2023-01-19T07:18:58;19.50;38.20
6986;DHT22;3533;51.246;6.850;2023-01-19T07:21:24;19.50;38.20
6986;DHT22;3533;51.246;6.850;2023-01-19T07:23:50;19.50;38.20
6986;DHT22;3533;51.246;6.850;2023-01-19T07:26:16;19.50;38.20
6986;DHT22;3533;51.246;6.850;2023-01-19T07:28:48;19.50;38.20
6986;DHT22;3533;51.246;6.850;2023-01-19T07:31:14;19.50;38.20
6986;DHT22;3533;51.246;6.850;2023-01-19T07:33:39;19.50;38.20
6986;DHT22;3533;51.246;6.850;2023-01-19T07:36:05;19.50;38.20
6986;DHT22;3533;51.246;6.850;2023-01-19T07:38:31;19.50;38.20
6986;DHT22;3533;51.246;6.850;2023-01-19T07:41:04;19.50;38.20
6986;DHT22;3533;51.246;6.850;2023-01-19T07:43:30;19.50;38.20
6986;DHT22;3533;51.246;6.850;2023-01-19T07:45:59;19.50;38.20
6986;DHT22;3533;51.246;6.850;2023-01-19T07:48:26;19.50;38.20
6986;DHT22;3533;51.246;6.850;2023-01-19T07:50:52;19.50;38.20
6986;DHT22;3533;51.246;6.850;2023-01-19T07:53:18;19.50;38.20
6986;DHT22;3533;51.246;6.850;2023-01-19T07:55:43;19.50;38.20
6986;DHT22;3533;51.246;6.850;2023-01-19T07:58:09;19.50;38.20
6986;DHT22;3533;51.246;6.850;2023-01-19T08:00:36;19.50;38.20
6986;DHT22;3533;51.246;6.850;2023-01-19T08:03:03;19.50;38.20
6986;DHT22;3533;51.246;6.850;2023-01-19T08:05:30;19.50;38.20
6986;DHT22;3533;51.246;6.850;2023-01-19T08:07:57;19.50;38.20
6986;DHT22;3533;51.246;6.850;2023-01-19T08:10:24;19.50;38.20
6986;DHT22;3533;51.246;6.850;2023-01-19T08:12:52;19.50;38.20
6986;DHT22;3533;51.246;6.850;2023-01-19T08:15:18;19.50;38.20
6986;DHT22;3533;51.246;6.850;2023-01-19T08:17:43;19.50;38.20
6986;DHT22;3533;51.246;6.850;2023-01-19T08:20:09;19.50;38.30
6986;DHT22;3533;51.246;6.850;2023-01-19T08:22:35;19.50;38.20
6986;DHT22;3533;51.246;6.850;2023-01-19T08:25:01;19.50;38.30
6986;DHT22;3533;51.246;6.850;2023-01-19T08:27:26;19.50;38.30
6986;DHT22;3533;51.246;6.850;2023-01-19T08:29:52;19.50;38.30
6986;DHT22;3533;51.246;6.850;2023-01-19T08:32:18;19.50;38.30
6986;DHT22;3533;51.246;6.850;2023-01-19T08:34:44;19.50;38.30
6986;DHT22;3533;51.246;6.850;2023-01-19T08:37:09;19.50;38.20
6986;DHT22;3533;51.246;6.850;2023-01-19T08:39:35;19.50;38.20
6986;DHT22;3533;51.246;6.850;2023-01-19T08:42:01;19.50;38.20
6986;DHT22;3533;51.246;6.850;2023-01-19T08:44:26;19.50;38.20
6986;DHT22;3533;51.246;6.850;2023-01-19T08:46:52;19.50;38.30
6986;DHT22;3533;51.246;6.850;2023-01-19T08:49:18;19.40;38.20
6986;DHT22;3533;51.246;6.850;2023-01-19T08:51:44;19.50;38.30
6986;DHT22;3533;51.246;6.850;2023-01-19T08:54:13;19.50;38.20
6986;DHT22;3533;51.246;6.850;2023-01-19T08:56:41;19.50;38.30
6986;DHT22;3533;51.246;6.850;2023-01-19T08:59:06;19.50;38.20
6986;DHT22;3533;51.246;6.850;2023-01-19T09:01:32;19.50;38.20
6986;DHT22;3533;51.246;6.850;2023-01-19T09:03:57;19.40;38.20
6986;DHT22;3533;51.246;6.850;2023-01-19T09:06:23;19.50;38.20
6986;DHT22;3533;51.246;6.850;2023-01-19T09:08:49;19.50;38.20
6986;DHT22;3533;51.246;6.850;2023-01-19T09:11:15;19.50;38.30
6986;DHT22;3533;51.246;6.850;2023-01-19T09:13:42;19.50;38.20
6986;DHT22;3533;51.246;6.850;2023-01-19T09:16:08;19.50;38.20
6986;DHT22;3533;51.246;6.850;2023-01-19T09:18:35;19.50;38.20
6986;DHT22;3533;51.246;6.850;2023-01-19T09:21:01;19.40;38.20
6986;DHT22;3533;51.246;6.850;2023-01-19T09:23:28;19.40;39.00
6986;DHT22;3533;51.246;6.850;2023-01-19T09:25:58;19.40;38.20
6986;DHT22;3533;51.246;6.850;2023-01-19T09:28:24;19.40;38.20
6986;DHT22;3533;51.246;6.850;2023-01-19T09:30:50;19.40;38.20
6986;DHT22;3533;51.246;6.850;2023-01-19T09:33:18;19.50;38.20
6986;DHT22;3533;51.246;6.850;2023-01-19T09:35:45;19.40;38.10
6986;DHT22;3533;51.246;6.850;2023-01-19T09:38:12;19.40;38.20
6986;DHT22;3533;51.246;6.850;2023-01-19T09:40:52;19.40;38.10
6986;DHT22;3533;51.246;6.850;2023-01-19T09:43:53;19.40;38.20
6986;DHT22;3533;51.246;6.850;2023-01-19T09:46:32;19.40;38.10
6986;DHT22;3533;51.246;6.850;2023-01-19T09:49:01;19.40;38.20
6986;DHT22;3533;51.246;6.850;2023-01-19T09:51:35;19.40;38.20
6986;DHT22;3533;51.246;6.850;2023-01-19T09:54:15;19.40;38.10
6986;DHT22;3533;51.246;6.850;2023-01-19T09:56:43;19.40;38.10
6986;DHT22;3533;51.246;6.850;2023-01-19T09:59:30;19.40;38.20
6986;DHT22;3533;51.246;6.850;2023-01-19T10:08:11;19.40;38.10
6986;DHT22;3533;51.246;6.850;2023-01-19T10:10:44;19.40;38.20
6986;DHT22;3533;51.246;6.850;2023-01-19T10:18:51;19.40;38.20
6986;DHT22;3533;51.246;6.850;2023-01-19T10:21:26;19.40;38.20
6986;DHT22;3533;51.246;6.850;2023-01-19T10:24:17;19.40;38.20
6986;DHT22;3533;51.246;6.850;2023-01-19T10:26:48;19.40;38.20
6986;DHT22;3533;51.246;6.850;2023-01-19T10:29:36;19.40;38.30
6986;DHT22;3533;51.246;6.850;2023-01-19T10:32:11;19.40;38.20
6986;DHT22;3533;51.246;6.850;2023-01-19T10:34:38;19.40;38.20
6986;DHT22;3533;51.246;6.850;2023-01-19T10:39:55;19.40;38.20
6986;DHT22;3533;51.246;6.850;2023-01-19T10:42:21;19.40;38.20
6986;DHT22;3533;51.246;6.850;2023-01-19T10:44:48;19.40;38.20
6986;DHT22;3533;51.246;6.850;2023-01-19T10:47:19;19.40;38.20
6986;DHT22;3533;51.246;6.850;2023-01-19T10:49:45;19.40;39.00
6986;DHT22;3533;51.246;6.850;2023-01-19T10:54:56;19.40;38.20
6986;DHT22;3533;51.246;6.850;2023-01-19T10:57:30;19.40;38.20
6986;DHT22;3533;51.246;6.850;2023-01-19T10:59:56;19.40;38.20
6986;DHT22;3533;51.246;6.850;2023-01-19T11:02:27;19.40;38.20
6986;DHT22;3533;51.246;6.850;2023-01-19T11:04:59;19.40;38.20
6986;DHT22;3533;51.246;6.850;2023-01-19T11:13:02;19.40;38.20
6986;DHT22;3533;51.246;6.850;2023-01-19T11:15:46;19.40;38.20
6986;DHT22;3533;51.246;6.850;2023-01-19T11:18:38;19.40;38.20
6986;DHT22;3533;51.246;6.850;2023-01-19T11:21:07;19.40;38.20
6986;DHT22;3533;51.246;6.850;2023-01-19T11:23:34;19.40;38.20
6986;DHT22;3533;51.246;6.850;2023-01-19T11:26:07;19.40;38.40
6986;DHT22;3533;51.246;6.850;2023-01-19T11:28:42;19.40;38.30
6986;DHT22;3533;51.246;6.850;2023-01-19T11:33:50;19.40;38.20
6986;DHT22;3533;51.246;6.850;2023-01-19T11:36:22;19.40;38.20
6986;DHT22;3533;51.246;6.850;2023-01-19T11:38:50;19.40;38.20
6986;DHT22;3533;51.246;6.850;2023-01-19T11:41:28;19.40;38.20
6986;DHT22;3533;51.246;6.850;2023-01-19T11:43:57;19.40;38.20
6986;DHT22;3533;51.246;6.850;2023-01-19T11:46:30;19.40;38.20
6986;DHT22;3533;51.246;6.850;2023-01-19T11:49:14;19.40;38.20
6986;DHT22;3533;51.246;6.850;2023-01-19T11:51:51;19.40;38.20
6986;DHT22;3533;51.246;6.850;2023-01-19T11:54:24;19.40;38.20
6986;DHT22;3533;51.246;6.850;2023-01-19T11:56:55;19.40;38.20
6986;DHT22;3533;51.246;6.850;2023-01-19T11:59:23;19.40;38.20
6986;DHT22;3533;51.246;6.850;2023-01-19T12:01:55;19.40;38.20
6986;DHT22;3533;51.246;6.850;2023-01-19T12:04:29;19.40;38.20
6986;DHT22;3533;51.246;6.850;2023-01-19T12:06:58;19.40;38.10
6986;DHT22;3533;51.246;6.850;2023-01-19T12:09:30;19.40;38.20
6986;DHT22;3533;51.246;6.850;2023-01-19T12:12:06;19.40;38.10
6986;DHT22;3533;51.246;6.850;2023-01-19T12:14:55;19.40;38.10
6986;DHT22;3533;51.246;6.850;2023-01-19T12:17:27;19.40;38.10
6986;DHT22;3533;51.246;6.850;2023-01-19T12:22:46;19.40;38.20
6986;DHT22;3533;51.246;6.850;2023-01-19T12:28:27;19.40;38.20
6986;DHT22;3533;51.246;6.850;2023-01-19T12:30:54;19.40;38.20
6986;DHT22;3533;51.246;6.850;2023-01-19T12:33:37;19.40;38.20
6986;DHT22;3533;51.246;6.850;2023-01-19T12:39:05;19.40;38.20
6986;DHT22;3533;51.246;6.850;2023-01-19T12:41:37;19.40;38.20
6986;DHT22;3533;51.246;6.850;2023-01-19T12:49:17;19.40;39.00
6986;DHT22;3533;51.246;6.850;2023-01-19T12:51:45;19.40;38.30
6986;DHT22;3533;51.246;6.850;2023-01-19T12:54:24;19.40;38.20
6986;DHT22;3533;51.246;6.850;2023-01-19T12:56:57;19.40;38.20
6986;DHT22;3533;51.246;6.850;2023-01-19T12:59:26;19.40;38.20
6986;DHT22;3533;51.246;6.850;2023-01-19T13:24:19;19.40;38.20
6986;DHT22;3533;51.246;6.850;2023-01-19T13:29:15;19.40;38.20
6986;DHT22;3533;51.246;6.850;2023-01-19T13:31:42;19.40;38.20
6986;DHT22;3533;51.246;6.850;2023-01-19T13:34:21;19.40;38.20
6986;DHT22;3533;51.246;6.850;2023-01-19T13:36:52;19.40;38.20
6986;DHT22;3533;51.246;6.850;2023-01-19T13:39:34;19.40;38.20
6986;DHT22;3533;51.246;6.850;2023-01-19T13:42:04;19.40;38.20
6986;DHT22;3533;51.246;6.850;2023-01-19T13:44:36;19.40;38.20
6986;DHT22;3533;51.246;6.850;2023-01-19T13:47:07;19.40;38.20
6986;DHT22;3533;51.246;6.850;2023-01-19T13:49:38;19.40;38.20
6986;DHT22;3533;51.246;6.850;2023-01-19T13:52:14;19.40;38.10
6986;DHT22;3533;51.246;6.850;2023-01-19T13:57:48;19.40;38.10
6986;DHT22;3533;51.246;6.850;2023-01-19T14:02:58;19.40;37.80
6986;DHT22;3533;51.246;6.850;2023-01-19T14:05:38;19.40;37.40
6986;DHT22;3533;51.246;6.850;2023-01-19T14:08:13;19.40;37.40
6986;DHT22;3533;51.246;6.850;2023-01-19T14:10:43;19.40;37.50
6986;DHT22;3533;51.246;6.850;2023-01-19T14:13:14;19.40;37.60
6986;DHT22;3533;51.246;6.850;2023-01-19T14:15:40;19.40;37.60
6986;DHT22;3533;51.246;6.850;2023-01-19T14:20:32;19.40;37.70
6986;DHT22;3533;51.246;6.850;2023-01-19T14:23:01;19.40;37.80
6986;DHT22;3533;51.246;6.850;2023-01-19T14:25:35;19.40;37.70
6986;DHT22;3533;51.246;6.850;2023-01-19T14:28:44;19.40;37.90
6986;DHT22;3533;51.246;6.850;2023-01-19T14:31:21;19.40;37.90
6986;DHT22;3533;51.246;6.850;2023-01-19T14:33:50;19.40;37.90
6986;DHT22;3533;51.246;6.850;2023-01-19T14:38:48;19.40;38.00
6986;DHT22;3533;51.246;6.850;2023-01-19T14:41:31;19.40;38.00
6986;DHT22;3533;51.246;6.850;2023-01-19T14:43:59;19.40;38.00
6986;DHT22;3533;51.246;6.850;2023-01-19T14:46:25;19.40;38.10
6986;DHT22;3533;51.246;6.850;2023-01-19T14:48:53;19.40;38.10
6986;DHT22;3533;51.246;6.850;2023-01-19T14:51:22;19.40;38.20
6986;DHT22;3533;51.246;6.850;2023-01-19T14:53:54;19.40;38.10
6986;DHT22;3533;51.246;6.850;2023-01-19T14:56:31;19.30;38.10
6986;DHT22;3533;51.246;6.850;2023-01-19T14:58:58;19.30;38.00
6986;DHT22;3533;51.246;6.850;2023-01-19T15:01:26;19.30;38.00
6986;DHT22;3533;51.246;6.850;2023-01-19T15:03:56;19.30;38.00
6986;DHT22;3533;51.246;6.850;2023-01-19T15:06:23;19.40;38.10
6986;DHT22;3533;51.246;6.850;2023-01-19T15:08:49;19.30;38.00
6986;DHT22;3533;51.246;6.850;2023-01-19T15:11:33;19.30;38.00
6986;DHT22;3533;51.246;6.850;2023-01-19T15:14:00;19.30;38.10
6986;DHT22;3533;51.246;6.850;2023-01-19T15:16:28;19.30;38.10
6986;DHT22;3533;51.246;6.850;2023-01-19T15:18:54;19.40;38.20
6986;DHT22;3533;51.246;6.850;2023-01-19T15:21:20;19.30;38.10
6986;DHT22;3533;51.246;6.850;2023-01-19T15:23:51;19.30;38.10
6986;DHT22;3533;51.246;6.850;2023-01-19T15:26:18;19.30;38.10
6986;DHT22;3533;51.246;6.850;2023-01-19T15:28:45;19.30;38.10
6986;DHT22;3533;51.246;6.850;2023-01-19T15:31:21;19.30;38.10
6986;DHT22;3533;51.246;6.850;2023-01-19T15:33:47;19.30;38.10
6986;DHT22;3533;51.246;6.850;2023-01-19T15:36:14;19.30;38.10
6986;DHT22;3533;51.246;6.850;2023-01-19T15:38:40;19.30;38.20
6986;DHT22;3533;51.246;6.850;2023-01-19T15:41:28;19.30;38.10
6986;DHT22;3533;51.246;6.850;2023-01-19T15:43:54;19.30;38.80
6986;DHT22;3533;51.246;6.850;2023-01-19T15:46:22;19.40;38.20
6986;DHT22;3533;51.246;6.850;2023-01-19T15:48:48;19.30;38.10
6986;DHT22;3533;51.246;6.850;2023-01-19T15:51:16;19.30;38.10
6986;DHT22;3533;51.246;6.850;2023-01-19T15:53:43;19.30;38.10
6986;DHT22;3533;51.246;6.850;2023-01-19T15:56:23;19.40;38.20
6986;DHT22;3533;51.246;6.850;2023-01-19T15:58:51;19.40;38.10
6986;DHT22;3533;51.246;6.850;2023-01-19T16:01:21;19.40;38.20
6986;DHT22;3533;51.246;6.850;2023-01-19T16:03:48;19.40;38.10
6986;DHT22;3533;51.246;6.850;2023-01-19T16:06:15;19.40;38.20
6986;DHT22;3533;51.246;6.850;2023-01-19T16:08:41;19.40;38.20
6986;DHT22;3533;51.246;6.850;2023-01-19T16:11:11;19.40;38.20
6986;DHT22;3533;51.246;6.850;2023-01-19T16:13:37;19.40;38.10
6986;DHT22;3533;51.246;6.850;2023-01-19T16:16:06;19.40;38.10
6986;DHT22;3533;51.246;6.850;2023-01-19T16:18:32;19.40;38.10
6986;DHT22;3533;51.246;6.850;2023-01-19T16:20:58;19.40;38.10
6986;DHT22;3533;51.246;6.850;2023-01-19T16:23:23;19.40;38.10
6986;DHT22;3533;51.246;6.850;2023-01-19T16:25:57;19.40;38.10
6986;DHT22;3533;51.246;6.850;2023-01-19T16:28:23;19.40;38.10
6986;DHT22;3533;51.246;6.850;2023-01-19T16:30:49;19.40;38.10
6986;DHT22;3533;51.246;6.850;2023-01-19T16:33:14;19.40;38.10
6986;DHT22;3533;51.246;6.850;2023-01-19T16:35:40;19.40;38.10
6986;DHT22;3533;51.246;6.850;2023-01-19T16:38:05;19.40;38.10
6986;DHT22;3533;51.246;6.850;2023-01-19T16:40:31;19.40;38.10
6986;DHT22;3533;51.246;6.850;2023-01-19T16:42:57;19.40;38.10
6986;DHT22;3533;51.246;6.850;2023-01-19T16:45:22;19.40;38.10
6986;DHT22;3533;51.246;6.850;2023-01-19T16:47:48;19.40;38.10
6986;DHT22;3533;51.246;6.850;2023-01-19T16:50:16;19.40;38.10
6986;DHT22;3533;51.246;6.850;2023-01-19T16:52:42;19.40;38.10
6986;DHT22;3533;51.246;6.850;2023-01-19T16:55:08;19.40;38.10
6986;DHT22;3533;51.246;6.850;2023-01-19T16:57:36;19.40;38.00
6986;DHT22;3533;51.246;6.850;2023-01-19T17:00:04;19.40;38.10
6986;DHT22;3533;51.246;6.850;2023-01-19T17:02:30;19.40;38.10
6986;DHT22;3533;51.246;6.850;2023-01-19T17:04:55;19.40;38.10
6986;DHT22;3533;51.246;6.850;2023-01-19T17:07:21;19.40;38.10
6986;DHT22;3533;51.246;6.850;2023-01-19T17:09:46;19.40;38.10
6986;DHT22;3533;51.246;6.850;2023-01-19T17:12:12;19.40;38.10
6986;DHT22;3533;51.246;6.850;2023-01-19T17:14:38;19.40;38.10
6986;DHT22;3533;51.246;6.850;2023-01-19T17:17:04;19.40;38.10
6986;DHT22;3533;51.246;6.850;2023-01-19T17:19:29;19.40;38.10
6986;DHT22;3533;51.246;6.850;2023-01-19T17:21:55;19.40;38.10
6986;DHT22;3533;51.246;6.850;2023-01-19T17:24:20;19.40;38.10
6986;DHT22;3533;51.246;6.850;2023-01-19T17:26:46;19.40;38.10
6986;DHT22;3533;51.246;6.850;2023-01-19T17:29:13;19.40;38.80
6986;DHT22;3533;51.246;6.850;2023-01-19T17:31:39;19.40;38.10
6986;DHT22;3533;51.246;6.850;2023-01-19T17:34:05;19.40;38.10
6986;DHT22;3533;51.246;6.850;2023-01-19T17:36:32;19.50;38.10
6986;DHT22;3533;51.246;6.850;2023-01-19T17:39:00;19.40;38.10